Time;durP1;ratioP1;P1;durP2;ratioP2;P2;SDS_P1;SDS_P2;PMS_P1;PMS_P2;Temp;Humidity;BMP_temperature;BMP_pressure;BME280_temperature;BME280_humidity;BME280_pressure;Samples;Min_cycle;Max_cycle;Signal;HPM_P1;HPM_P2
2023/04/17 00:04:17;;;;;;;9.07;3.85;;;;;;;16.89;58.77;96981.31;10362488;28;20301;-28
2023/04/17 00:09:17;;;;;;;6.78;3.83;;;;;;;16.87;58.87;96982.13;10369876;28;20041;-28
2023/04/17 00:14:17;;;;;;;5.80;3.60;;;;;;;16.86;58.73;96973.69;10353448;28;20038;-28
2023/04/17 00:19:18;;;;;;;6.90;3.23;;;;;;;16.86;58.62;96970.31;10353660;28;20439;-28
2023/04/17 00:24:18;;;;;;;7.03;3.70;;;;;;;16.84;59.39;96960.16;10361472;28;20046;-28
2023/04/17 00:29:18;;;;;;;6.57;3.70;;;;;;;16.90;59.75;96964.47;10339652;28;20034;-28
2023/04/17 00:34:18;;;;;;;7.80;3.90;;;;;;;16.91;59.41;96969.53;10355192;28;20067;-28
2023/04/17 00:39:19;;;;;;;7.45;3.30;;;;;;;16.91;58.72;96961.94;10365898;28;20124;-28
2023/04/17 00:44:20;;;;;;;7.03;3.50;;;;;;;16.87;59.42;96955.16;10366843;28;20026;-28
2023/04/17 00:49:21;;;;;;;13.53;5.10;;;;;;;16.88;58.84;96961.06;10356136;28;20656;-28
2023/04/17 00:54:22;;;;;;;5.88;3.60;;;;;;;16.84;59.04;96947.53;10367459;28;20400;-28
2023/04/17 00:59:23;;;;;;;9.25;3.03;;;;;;;16.85;58.98;96950.91;10361747;28;20034;-28
2023/04/17 01:04:23;;;;;;;3.80;2.90;;;;;;;16.84;58.79;96945.00;10355641;28;20404;-28
2023/04/17 01:09:24;;;;;;;7.78;3.53;;;;;;;16.84;58.88;96944.16;10360400;28;20025;-28
2023/04/17 01:14:24;;;;;;;8.27;3.23;;;;;;;16.83;58.16;96937.41;10357432;28;20076;-28
2023/04/17 01:19:26;;;;;;;7.35;3.05;;;;;;;16.82;58.68;96936.56;10363787;28;20854;-28
2023/04/17 01:24:26;;;;;;;5.45;3.58;;;;;;;16.82;58.85;96935.72;10352131;28;20022;-28
2023/04/17 01:29:27;;;;;;;6.25;3.10;;;;;;;16.82;58.03;96933.19;10349308;28;20038;-28
2023/04/17 01:34:29;;;;;;;7.15;4.18;;;;;;;16.82;58.58;96928.97;10348713;28;20034;-28
2023/04/17 01:39:29;;;;;;;7.37;3.10;;;;;;;16.86;59.80;96924.78;10366527;28;20040;-28
2023/04/17 01:44:30;;;;;;;5.85;3.35;;;;;;;16.87;59.73;96926.50;10366400;28;20029;-28
2023/04/17 01:49:31;;;;;;;5.47;3.47;;;;;;;16.88;59.77;96935.75;10360667;28;20511;-28
2023/04/17 01:54:31;;;;;;;6.68;3.40;;;;;;;16.87;59.18;96929.00;10367539;28;20296;-28
2023/04/17 01:59:32;;;;;;;7.78;3.00;;;;;;;16.84;59.33;96924.78;10352001;28;20042;-28
2023/04/17 02:04:32;;;;;;;5.53;3.93;;;;;;;16.82;58.96;96926.44;10371983;28;20042;-28
2023/04/17 02:09:32;;;;;;;8.63;3.30;;;;;;;16.81;59.21;96919.69;10350365;28;20360;-28
2023/04/17 02:14:33;;;;;;;5.23;3.10;;;;;;;16.80;58.73;96918.00;10356092;28;20063;-28
2023/04/17 02:19:33;;;;;;;4.13;2.80;;;;;;;16.80;58.13;96919.66;10355931;28;20034;-28
2023/04/17 02:24:36;;;;;;;6.22;3.67;;;;;;;16.79;57.74;96915.44;10366003;28;20026;-28
2023/04/17 02:29:36;;;;;;;5.90;3.17;;;;;;;16.79;58.74;96915.44;10356459;28;20049;-28
2023/04/17 02:34:37;;;;;;;4.57;3.00;;;;;;;16.79;58.05;96912.91;10364084;28;20450;-28
2023/04/17 02:39:37;;;;;;;5.22;3.15;;;;;;;16.78;58.64;96914.63;10365320;28;20070;-28
2023/04/17 02:44:38;;;;;;;5.05;3.13;;;;;;;16.77;57.81;96913.78;10363722;28;20042;-28
2023/04/17 02:49:40;;;;;;;4.57;3.22;;;;;;;16.80;59.94;96917.13;10345669;28;20034;-28
2023/04/17 02:54:41;;;;;;;6.22;3.40;;;;;;;16.84;59.82;96914.66;10344474;28;20037;-28
2023/04/17 02:59:42;;;;;;;5.18;3.03;;;;;;;16.88;59.98;96915.53;10363301;28;20030;-28
2023/04/17 03:04:43;;;;;;;4.07;2.88;;;;;;;16.86;59.31;96918.06;10361261;28;20400;-28
2023/04/17 03:09:47;;;;;;;4.63;2.80;;;;;;;16.78;59.01;96904.50;10347737;28;20045;-28
2023/04/17 03:14:47;;;;;;;4.05;2.80;;;;;;;16.79;59.54;96915.44;10338631;28;20038;-28
2023/04/17 03:19:48;;;;;;;6.80;3.40;;;;;;;16.77;58.85;96910.41;10369881;28;20033;-28
2023/04/17 03:24:48;;;;;;;6.30;2.93;;;;;;;16.77;58.99;96917.13;10357043;28;20042;-28
2023/04/17 03:29:53;;;;;;;4.05;2.55;;;;;;;16.77;58.47;96907.00;10346369;28;20056;-28
2023/04/17 03:34:53;;;;;;;4.25;2.38;;;;;;;16.76;57.50;96907.84;10353389;28;20451;-28
2023/04/17 03:39:54;;;;;;;5.77;2.90;;;;;;;16.76;58.49;96912.91;10353456;28;20097;-28
2023/04/17 03:44:55;;;;;;;4.05;2.88;;;;;;;16.76;58.22;96912.91;10343334;28;20034;-27
2023/04/17 03:49:57;;;;;;;4.75;3.17;;;;;;;16.74;58.04;96917.09;10350528;28;20042;-28
2023/04/17 03:54:58;;;;;;;3.78;2.55;;;;;;;16.78;59.16;96913.75;10341632;28;20041;-28
2023/04/17 03:59:59;;;;;;;6.13;2.65;;;;;;;16.81;58.69;96916.34;10360175;28;20030;-28
2023/04/17 04:05:05;;;;;;;4.00;3.00;;;;;;;16.85;59.67;96910.47;10363617;28;20095;-28
2023/04/17 04:10:06;;;;;;;5.03;2.28;;;;;;;16.86;58.93;96907.97;10365030;28;20096;-28
2023/04/17 04:15:07;;;;;;;4.88;2.40;;;;;;;16.87;58.47;96908.78;10360554;28;20033;-28
2023/04/17 04:20:09;;;;;;;5.10;2.53;;;;;;;16.89;58.20;96917.25;10363075;28;20029;-28
2023/04/17 04:25:11;;;;;;;4.60;2.97;;;;;;;16.89;58.26;96917.25;10354804;28;20051;-28
2023/04/17 04:30:26;;;;;;;5.93;2.40;;;;;;;16.92;58.29;96918.09;10325858;28;20100;-28
2023/04/17 04:35:35;;;;;;;4.97;2.92;;;;;;;16.94;57.51;96918.13;10329180;28;20034;-28
2023/04/17 04:40:37;;;;;;;11.05;5.13;;;;;;;16.77;57.93;96914.59;10341893;28;20048;-28
2023/04/17 04:45:37;;;;;;;9.55;7.32;;;;;;;16.50;57.04;96921.91;10328473;28;20064;-28
2023/04/17 04:50:38;;;;;;;8.75;5.70;;;;;;;16.66;56.42;96931.34;10328601;28;20041;-29
2023/04/17 04:55:38;;;;;;;13.65;6.25;;;;;;;16.77;55.97;96922.19;10326893;28;20030;-29
2023/04/17 05:00:39;;;;;;;10.10;6.00;;;;;;;16.80;57.03;96927.25;10325404;28;20042;-29
2023/04/17 05:05:42;;;;;;;9.13;5.13;;;;;;;16.85;57.33;96920.56;10327603;28;20481;-29
2023/04/17 05:10:45;;;;;;;6.85;5.20;;;;;;;16.84;58.03;96929.00;10324122;28;20233;-29
2023/04/17 05:15:46;;;;;;;10.68;7.00;;;;;;;16.86;58.45;96937.44;10328636;28;20030;-29
2023/04/17 05:20:50;;;;;;;9.90;5.15;;;;;;;16.90;57.94;96939.19;10334113;28;20037;-29
2023/04/17 05:25:51;;;;;;;7.03;4.45;;;;;;;16.96;56.24;96944.28;10325717;28;20030;-29
2023/04/17 05:30:52;;;;;;;11.25;8.07;;;;;;;16.41;55.28;96934.44;10324338;28;20165;-29
2023/04/17 05:36:00;;;;;;;10.50;7.32;;;;;;;16.59;56.17;96932.09;10324846;28;20483;-29
2023/04/17 05:41:01;;;;;;;8.63;5.85;;;;;;;16.70;56.71;96935.59;10327076;28;20042;-29
2023/04/17 05:46:02;;;;;;;8.82;6.00;;;;;;;16.73;57.21;96931.41;10333814;28;20484;-29
2023/04/17 05:51:02;;;;;;;7.53;4.90;;;;;;;16.77;56.93;96937.34;10326884;28;20034;-29
2023/04/17 05:56:03;;;;;;;6.82;5.15;;;;;;;16.78;57.19;96934.00;10325661;28;20290;-29
2023/04/17 06:01:07;;;;;;;6.18;4.80;;;;;;;16.78;57.26;96944.09;10333305;28;20030;-29
2023/04/17 06:06:07;;;;;;;6.57;4.57;;;;;;;16.80;57.48;96952.53;10325569;28;20518;-29
2023/04/17 06:11:08;;;;;;;7.97;4.50;;;;;;;16.81;57.40;96954.25;10326266;28;20501;-29
2023/04/17 06:16:08;;;;;;;7.53;4.47;;;;;;;16.80;57.11;96962.66;10342589;28;20292;-29
2023/04/17 06:21:09;;;;;;;5.00;3.70;;;;;;;16.79;57.64;96956.75;10329308;28;20042;-29
2023/04/17 06:26:11;;;;;;;8.30;4.55;;;;;;;16.80;57.57;96952.53;10356797;28;20040;-29
2023/04/17 06:31:13;;;;;;;5.43;3.72;;;;;;;16.83;57.56;96957.66;10332029;28;20034;-29
2023/04/17 06:36:14;;;;;;;5.38;4.32;;;;;;;16.85;57.65;96966.09;10333594;28;20034;-29
2023/04/17 06:41:22;;;;;;;8.52;4.00;;;;;;;16.85;57.18;96963.56;10333194;28;20033;-29
2023/04/17 06:46:23;;;;;;;5.90;4.97;;;;;;;16.83;57.19;96962.72;10339954;28;20038;-29
2023/04/17 06:51:24;;;;;;;4.23;3.80;;;;;;;16.79;57.34;96958.44;10341030;28;20030;-29
2023/04/17 06:56:24;;;;;;;4.78;3.58;;;;;;;16.79;57.23;96964.34;10348418;28;20042;-29
2023/04/17 07:01:26;;;;;;;4.87;4.03;;;;;;;16.78;57.82;96969.38;10332100;28;20041;-29
2023/04/17 07:06:28;;;;;;;6.65;3.83;;;;;;;16.76;57.54;96976.09;10332625;28;20039;-29
2023/04/17 07:11:29;;;;;;;4.18;3.67;;;;;;;16.75;57.73;96974.41;10332000;28;20073;-29
2023/04/17 07:16:29;;;;;;;5.38;3.65;;;;;;;16.71;57.38;96977.72;10336479;28;20036;-29
2023/04/17 07:21:30;;;;;;;4.43;4.03;;;;;;;16.70;56.80;96965.94;10336133;28;20519;-29
2023/04/17 07:26:30;;;;;;;4.13;3.45;;;;;;;16.68;56.61;96962.53;10331710;28;20050;-29
2023/04/17 07:31:31;;;;;;;4.27;3.43;;;;;;;16.69;56.41;96969.28;10338189;28;20034;-29
2023/04/17 07:36:31;;;;;;;4.10;3.70;;;;;;;16.73;57.63;96967.63;10340000;28;20037;-29
2023/04/17 07:41:32;;;;;;;4.20;3.45;;;;;;;16.78;57.86;96970.25;10330792;28;20290;-29
2023/04/17 07:46:32;;;;;;;5.03;3.30;;;;;;;16.82;57.49;96971.13;10346497;28;20436;-29
2023/04/17 07:51:32;;;;;;;4.20;3.80;;;;;;;16.79;57.35;96982.06;10330753;28;20056;-29
2023/04/17 07:56:33;;;;;;;3.30;3.00;;;;;;;16.79;57.13;96977.00;10330412;28;20041;-29
2023/04/17 08:01:33;;;;;;;3.85;3.15;;;;;;;16.73;57.50;96975.22;10337910;28;20030;-29
2023/04/17 08:06:34;;;;;;;3.77;3.37;;;;;;;16.70;57.04;96983.63;10338105;28;20520;-29
2023/04/17 08:11:34;;;;;;;3.72;3.20;;;;;;;16.70;56.54;96987.84;10329558;28;20308;-29
2023/04/17 08:16:35;;;;;;;5.50;3.17;;;;;;;16.69;56.46;96984.44;10337501;28;20036;-29
2023/04/17 08:21:35;;;;;;;5.30;3.40;;;;;;;16.68;56.27;96992.88;10334661;28;20048;-29
2023/04/17 08:26:35;;;;;;;4.13;3.17;;;;;;;16.66;56.31;96994.53;10337212;28;20038;-29
2023/04/17 08:31:36;;;;;;;3.50;2.80;;;;;;;16.67;56.31;96986.94;10336884;28;20502;-29
2023/04/17 08:36:36;;;;;;;3.37;3.07;;;;;;;16.67;55.85;96991.19;10329274;28;20121;-29
2023/04/17 08:41:46;;;;;;;4.70;3.20;;;;;;;16.67;56.15;96986.13;10328565;28;20511;-29
2023/04/17 08:46:48;;;;;;;2.80;2.50;;;;;;;16.68;56.06;96997.94;10328792;28;20038;-29
2023/04/17 08:51:48;;;;;;;4.40;3.45;;;;;;;16.75;57.21;96992.13;10328370;28;20092;-29
2023/04/17 08:56:49;;;;;;;4.37;3.33;;;;;;;16.80;57.48;96993.00;10328374;28;20080;-29
2023/04/17 09:02:06;;;;;;;3.85;3.40;;;;;;;16.80;57.31;96993.00;10336440;28;20305;-29
2023/04/17 09:07:07;;;;;;;;;;;;;;;16.77;57.49;96992.97;10329182;28;20037;-29
2023/04/17 09:12:09;;;;;;;3.45;3.13;;;;;;;16.69;56.52;96989.50;10340298;28;19929;-29
2023/04/17 09:17:10;;;;;;;3.80;2.88;;;;;;;16.67;56.19;96992.84;10327701;28;20034;-28
2023/04/17 09:22:21;;;;;;;3.20;2.90;;;;;;;16.66;56.78;96994.53;10335867;28;20056;-29
2023/04/17 09:27:26;;;;;;;3.30;3.00;;;;;;;16.66;56.47;96983.56;10327059;28;20468;-29
2023/04/17 09:32:28;;;;;;;2.95;2.75;;;;;;;16.64;56.71;96983.56;10327349;28;20030;-29
2023/04/17 09:37:49;;;;;;;3.15;2.85;;;;;;;16.65;56.28;96990.31;10343354;28;20117;-29
2023/04/17 09:42:54;;;;;;;3.33;3.00;;;;;;;16.66;55.94;96993.69;10327207;28;20042;-29
2023/04/17 09:47:55;;;;;;;3.42;2.95;;;;;;;16.66;55.87;96988.63;10331612;28;20180;-29
2023/04/17 09:52:55;;;;;;;3.20;2.90;;;;;;;16.64;56.29;96995.34;10327494;28;20112;-29
2023/04/17 09:57:58;;;;;;;2.72;2.47;;;;;;;16.63;56.13;96989.44;10332815;28;20034;-29
2023/04/17 10:03:01;;;;;;;3.10;2.80;;;;;;;16.71;58.08;96987.84;10334791;28;20026;-29
2023/04/17 10:08:01;;;;;;;2.80;2.55;;;;;;;16.78;57.63;96982.03;10334697;28;20085;-29
2023/04/17 10:13:06;;;;;;;4.32;2.85;;;;;;;16.78;57.51;96975.31;10342119;28;20108;-29
2023/04/17 10:18:23;;;;;;;2.97;2.58;;;;;;;16.80;57.22;96978.69;10341954;28;20053;-29
2023/04/17 10:23:26;;;;;;;3.88;2.90;;;;;;;16.79;57.25;96971.94;10333927;28;20041;-29
2023/04/17 10:28:47;;;;;;;3.10;2.67;;;;;;;16.79;57.18;96966.88;10333984;28;20120;-29
2023/04/17 10:33:53;;;;;;;3.20;2.90;;;;;;;16.80;57.15;96968.56;10334484;28;20505;-29
2023/04/17 10:39:11;;;;;;;2.95;2.70;;;;;;;16.81;57.08;96961.84;10340104;28;20041;-29
2023/04/17 10:44:12;;;;;;;2.67;2.35;;;;;;;16.77;54.65;96967.69;10340522;28;20049;-29
2023/04/17 10:49:12;;;;;;;2.70;2.50;;;;;;;16.78;56.79;96960.13;10338063;28;20026;-29
2023/04/17 10:54:14;;;;;;;3.35;3.05;;;;;;;16.80;57.05;96962.66;10341009;28;20026;-29
2023/04/17 10:59:18;;;;;;;5.57;3.40;;;;;;;16.80;56.64;96958.47;10332986;28;20049;-29
2023/04/17 11:04:27;;;;;;;4.22;3.28;;;;;;;16.81;56.84;96962.69;10332233;28;20149;-29
2023/04/17 11:09:28;;;;;;;3.08;2.72;;;;;;;16.82;57.11;96954.25;10339110;28;20068;-29
2023/04/17 11:14:29;;;;;;;3.20;2.70;;;;;;;16.83;55.26;96947.53;10340570;28;20033;-29
2023/04/17 11:19:31;;;;;;;4.72;3.38;;;;;;;16.91;57.48;96956.03;10332121;28;20046;-29
2023/04/17 11:24:31;;;;;;;3.38;2.97;;;;;;;16.89;57.05;96948.44;10331509;28;20038;-29
2023/04/17 11:29:31;;;;;;;3.97;3.10;;;;;;;16.88;57.25;96946.75;10331621;28;20038;-29
2023/04/17 11:34:33;;;;;;;6.70;3.37;;;;;;;16.88;57.25;96950.94;10331162;28;20303;-29
2023/04/17 11:39:33;;;;;;;3.00;2.50;;;;;;;16.85;57.61;96954.31;10331051;28;20038;-29
2023/04/17 11:44:33;;;;;;;3.40;2.90;;;;;;;16.85;57.90;96955.97;10331071;28;20034;-29
2023/04/17 11:49:38;;;;;;;3.30;2.80;;;;;;;16.80;56.87;96942.44;10333171;28;20447;-29
2023/04/17 11:54:38;;;;;;;15.88;3.30;;;;;;;16.81;55.29;96949.22;10334150;28;20070;-29
2023/04/17 11:59:44;;;;;;;9.97;2.80;;;;;;;16.83;55.35;96939.94;10330266;28;20094;-29
2023/04/17 12:04:45;;;;;;;6.83;2.93;;;;;;;16.81;55.67;96934.88;10338079;28;20301;-29
2023/04/17 12:09:54;;;;;;;4.63;2.73;;;;;;;16.81;55.74;96928.97;10337572;28;20458;-29
2023/04/17 12:14:54;;;;;;;6.68;2.28;;;;;;;16.74;54.40;96922.16;10328907;28;20289;-29
2023/04/17 12:19:54;;;;;;;3.37;2.70;;;;;;;16.75;56.61;96917.09;10328203;28;20031;-29
2023/04/17 12:24:55;;;;;;;6.20;4.30;;;;;;;16.76;56.00;96910.38;10329761;28;20289;-29
2023/04/17 12:29:55;;;;;;;3.70;2.63;;;;;;;16.80;57.97;96907.88;10328977;28;20138;-29
2023/04/17 12:34:56;;;;;;;3.97;2.87;;;;;;;16.86;58.21;96907.09;10330008;28;20034;-29
2023/04/17 12:39:58;;;;;;;3.45;2.67;;;;;;;16.84;57.69;96907.06;10328660;28;20091;-29
2023/04/17 12:44:58;;;;;;;2.78;2.58;;;;;;;16.81;57.45;96902.00;10328542;28;20042;-29
2023/04/17 12:49:58;;;;;;;3.70;2.23;;;;;;;16.81;56.69;96903.69;10328465;28;20444;-29
2023/04/17 12:54:59;;;;;;;3.10;2.60;;;;;;;16.78;57.02;96906.16;10328237;28;20264;-29
2023/04/17 13:00:00;;;;;;;4.75;3.00;;;;;;;16.79;56.49;96896.09;10336181;28;20038;-29
2023/04/17 13:05:01;;;;;;;6.57;2.83;;;;;;;16.81;56.69;96908.75;10328664;28;20038;-29
2023/04/17 13:10:02;;;;;;;3.17;2.70;;;;;;;16.81;56.78;96908.75;10339173;28;20057;-29
2023/04/17 13:15:02;;;;;;;4.47;3.15;;;;;;;16.77;56.44;96901.97;10327710;28;20523;-29
2023/04/17 13:20:03;;;;;;;5.30;2.85;;;;;;;16.76;55.14;96907.84;10328112;28;20050;-29
2023/04/17 13:25:04;;;;;;;5.95;3.58;;;;;;;16.75;56.07;96907.00;10335626;28;20664;-29
2023/04/17 13:30:05;;;;;;;5.35;3.97;;;;;;;16.75;56.10;96894.34;10334509;28;20030;-29
2023/04/17 13:35:08;;;;;;;5.20;3.55;;;;;;;16.75;54.86;96891.00;10335524;28;20054;-29
2023/04/17 13:40:09;;;;;;;3.47;2.97;;;;;;;16.77;57.90;96886.78;10335094;28;20149;-29
2023/04/17 13:45:11;;;;;;;3.88;2.85;;;;;;;16.81;57.83;96884.28;10335137;28;20049;-29
2023/04/17 13:50:11;;;;;;;3.15;2.65;;;;;;;16.84;57.63;96883.47;10326878;28;20034;-29
2023/04/17 13:55:13;;;;;;;5.93;2.90;;;;;;;16.80;56.33;96871.63;10328236;28;20026;-33
2023/04/17 14:00:14;;;;;;;4.13;3.35;;;;;;;16.84;54.44;96873.38;10327025;28;20808;-32
2023/04/17 14:05:14;;;;;;;6.57;3.50;;;;;;;16.85;53.78;96880.13;10328530;28;20106;-31
2023/04/17 14:10:14;;;;;;;6.07;3.03;;;;;;;16.88;53.43;96872.53;10345678;28;20068;-33
2023/04/17 14:15:15;;;;;;;7.57;3.13;;;;;;;16.89;53.45;96877.63;10328810;28;20515;-33
2023/04/17 14:20:17;;;;;;;7.68;3.22;;;;;;;16.94;53.39;96870.94;10340379;28;20285;-32
2023/04/17 14:25:17;;;;;;;3.88;3.47;;;;;;;16.92;53.04;96871.75;10327355;28;20042;-32
2023/04/17 14:30:17;;;;;;;3.53;2.63;;;;;;;16.93;52.80;96868.38;10328643;28;20041;-32
2023/04/17 14:35:19;;;;;;;3.50;2.73;;;;;;;16.91;54.47;96865.84;10336356;28;20448;-33
2023/04/17 14:40:19;;;;;;;25.52;5.13;;;;;;;16.94;54.91;96870.06;10332478;28;20034;-33
2023/04/17 14:45:19;;;;;;;13.60;4.60;;;;;;;16.93;55.02;96860.81;10343591;28;20493;-32
2023/04/17 14:50:20;;;;;;;23.80;5.33;;;;;;;17.02;60.39;96858.34;10342818;28;20034;-31
2023/04/17 14:55:22;;;;;;;16.93;3.93;;;;;;;17.10;60.00;96849.13;10352244;28;20503;-32
2023/04/17 15:00:22;;;;;;;9.00;4.38;;;;;;;17.14;59.65;96843.28;10335462;28;20030;-33
2023/04/17 15:05:23;;;;;;;12.20;4.32;;;;;;;17.06;58.15;96844.91;10342533;28;20032;-32
2023/04/17 15:10:24;;;;;;;7.43;2.92;;;;;;;16.98;55.71;96836.41;10334218;28;20484;-32
2023/04/17 15:15:27;;;;;;;7.93;2.80;;;;;;;16.96;55.58;96838.06;10334017;28;20464;-32
2023/04/17 15:20:28;;;;;;;11.75;3.30;;;;;;;16.93;55.52;96838.03;10334007;28;20048;-32
2023/04/17 15:25:28;;;;;;;9.38;3.22;;;;;;;16.93;56.57;96846.50;10333535;28;20045;-32
2023/04/17 15:30:29;;;;;;;10.43;3.00;;;;;;;16.94;59.25;96849.84;10347759;28;20031;-35
2023/04/17 15:35:29;;;;;;;5.88;2.83;;;;;;;16.91;55.47;96843.06;10332311;28;20085;-31
2023/04/17 15:40:30;;;;;;;16.13;2.40;;;;;;;16.92;55.78;96856.59;10330422;28;20050;-32
2023/04/17 15:45:30;;;;;;;16.17;2.90;;;;;;;16.91;56.41;96847.31;10348320;28;20815;-33
2023/04/17 15:50:31;;;;;;;5.32;2.22;;;;;;;16.92;54.44;96851.53;10354771;28;20496;-33
2023/04/17 15:55:32;;;;;;;5.17;2.90;;;;;;;16.92;54.98;96849.00;10351369;28;20548;-33
2023/04/17 16:00:32;;;;;;;14.60;3.42;;;;;;;16.96;56.91;96848.16;10330380;28;20400;-32
2023/04/17 16:05:33;;;;;;;11.40;2.88;;;;;;;17.05;58.62;96838.97;10330058;28;20031;-33
2023/04/17 16:10:34;;;;;;;8.67;3.13;;;;;;;17.11;58.90;96840.69;10329983;28;20034;-33
2023/04/17 16:15:35;;;;;;;12.48;2.58;;;;;;;17.07;57.34;96841.53;10327558;28;20038;-33
2023/04/17 16:20:38;;;;;;;8.17;2.67;;;;;;;17.02;55.05;96850.75;10342568;28;20400;-31
2023/04/17 16:25:38;;;;;;;6.75;2.53;;;;;;;16.99;55.15;96843.16;10328824;28;20034;-31
2023/04/17 16:30:38;;;;;;;4.70;2.27;;;;;;;16.97;55.07;96840.59;10336024;28;20034;-32
2023/04/17 16:35:39;;;;;;;8.52;2.65;;;;;;;16.97;55.53;96860.84;10334856;28;20304;-32
2023/04/17 16:40:39;;;;;;;6.13;2.03;;;;;;;16.96;56.63;96888.63;10355084;28;20037;-32
2023/04/17 16:45:40;;;;;;;4.97;1.73;;;;;;;16.92;54.19;96902.09;10329303;28;20038;-33
2023/04/17 16:50:41;;;;;;;2.72;2.10;;;;;;;16.94;53.44;96892.84;10334425;28;20066;-32
2023/04/17 16:55:41;;;;;;;3.57;1.60;;;;;;;16.96;52.96;96898.75;10332694;28;20121;-32
2023/04/17 17:00:41;;;;;;;1.97;1.50;;;;;;;16.98;52.94;96900.47;10327601;28;20395;-32
2023/04/17 17:05:42;;;;;;;5.75;1.35;;;;;;;16.97;52.70;96908.88;10328994;28;20043;-32
2023/04/17 17:10:42;;;;;;;6.27;1.80;;;;;;;16.96;53.29;96916.44;10331707;28;21451;-32
2023/04/17 17:15:43;;;;;;;9.53;2.40;;;;;;;17.09;58.43;96923.31;10325697;28;20147;-32
2023/04/17 17:20:43;;;;;;;3.27;1.77;;;;;;;17.15;58.63;96928.44;10327022;28;20388;-33
2023/04/17 17:25:43;;;;;;;5.20;2.20;;;;;;;17.13;57.99;96937.69;10327957;28;20057;-32
2023/04/17 17:30:44;;;;;;;3.33;1.97;;;;;;;17.06;53.91;96938.50;10326808;28;20301;-33
2023/04/17 17:35:47;;;;;;;6.25;1.50;;;;;;;17.03;53.31;96935.91;10335716;28;20042;-32
2023/04/17 17:40:49;;;;;;;3.85;1.80;;;;;;;17.00;53.22;96934.19;10306989;28;20133;-33
2023/04/17 17:45:51;;;;;;;4.30;1.80;;;;;;;17.02;52.74;96936.75;10309875;28;20034;-33
2023/04/17 17:50:56;;;;;;;6.32;1.50;;;;;;;17.01;52.97;96930.00;10321442;28;20108;-32
2023/04/17 17:55:58;;;;;;;1.83;1.40;;;;;;;17.01;52.50;96942.66;10325720;28;20858;-30
2023/04/17 18:01:01;;;;;;;2.22;1.40;;;;;;;17.00;52.82;96946.00;10335676;28;20034;-32
2023/04/17 18:06:01;;;;;;;2.78;1.40;;;;;;;17.01;53.78;96953.63;10346128;28;20044;-31
2023/04/17 18:11:04;;;;;;;4.60;1.63;;;;;;;17.05;58.82;96954.47;10348034;28;20037;-31
2023/04/17 18:16:05;;;;;;;9.77;1.80;;;;;;;17.12;59.78;96951.16;10344832;28;20112;-32
2023/04/17 18:21:06;;;;;;;9.20;1.92;;;;;;;17.13;59.63;96958.78;10336301;28;20189;-33
2023/04/17 18:26:06;;;;;;;7.30;1.65;;;;;;;17.07;54.45;96962.94;10333532;28;20038;-32
2023/04/17 18:31:06;;;;;;;2.90;1.27;;;;;;;17.03;53.48;96971.31;10333158;28;20575;-31
2023/04/17 18:36:07;;;;;;;4.73;1.73;;;;;;;17.02;52.76;96959.50;10334474;28;20501;-32
2023/04/17 18:41:08;;;;;;;4.65;1.10;;;;;;;16.99;52.91;96962.03;10337330;28;20038;-32
2023/04/17 18:46:08;;;;;;;3.03;1.30;;;;;;;17.04;52.79;96957.84;10337654;28;20034;-32
2023/04/17 18:51:13;;;;;;;3.13;1.47;;;;;;;17.06;56.85;96956.19;10367082;28;20296;-32
2023/04/17 18:56:14;;;;;;;6.18;1.83;;;;;;;17.07;58.66;96958.72;10366792;28;20126;-32
2023/04/17 19:01:14;;;;;;;4.93;1.40;;;;;;;17.08;58.97;96960.41;10363338;28;20061;-32
2023/04/17 19:06:15;;;;;;;4.80;1.70;;;;;;;17.09;59.27;96961.28;10373689;28;20087;-33
2023/04/17 19:11:15;;;;;;;5.80;1.60;;;;;;;17.08;59.59;96969.69;10362223;28;20341;-32
2023/04/17 19:16:15;;;;;;;4.13;1.40;;;;;;;17.09;59.50;96958.75;10344676;28;20041;-32
2023/04/17 19:21:16;;;;;;;2.97;1.37;;;;;;;17.12;58.96;96961.28;10326738;28;20787;-34
2023/04/17 19:26:16;;;;;;;2.47;1.73;;;;;;;17.07;55.73;96958.72;10351773;28;20037;-33
2023/04/17 19:31:17;;;;;;;4.13;1.30;;;;;;;17.09;55.22;96956.22;10334125;28;20064;-32
2023/04/17 19:36:17;;;;;;;2.53;1.20;;;;;;;17.05;53.33;96957.88;10333532;28;20711;-32
2023/04/17 19:41:18;;;;;;;1.63;0.80;;;;;;;17.04;52.94;96955.31;10333095;28;20038;-33
2023/04/17 19:46:20;;;;;;;2.13;1.20;;;;;;;17.07;53.22;96957.88;10329637;28;20042;-32
2023/04/17 19:51:21;;;;;;;2.25;1.10;;;;;;;17.05;53.08;96960.41;10339264;28;20045;-32
2023/04/17 19:56:21;;;;;;;2.13;1.10;;;;;;;17.06;54.00;96957.03;10331601;28;20041;-32
2023/04/17 20:01:22;;;;;;;2.85;1.13;;;;;;;17.05;52.49;96946.88;10345695;28;20058;-32
2023/04/17 20:06:22;;;;;;;6.00;1.37;;;;;;;17.06;58.54;96946.91;10345018;28;20030;-32
2023/04/17 20:11:23;;;;;;;9.93;1.50;;;;;;;17.08;60.08;96941.88;10344227;28;20481;-33
2023/04/17 20:16:23;;;;;;;4.47;1.73;;;;;;;17.07;60.79;96947.78;10344971;28;20481;-33
2023/04/17 20:21:23;;;;;;;2.65;1.27;;;;;;;17.07;60.13;96937.66;10336547;28;20504;-32
2023/04/17 20:26:25;;;;;;;3.40;1.20;;;;;;;17.04;54.09;96945.19;10329486;28;20030;-32
2023/04/17 20:31:25;;;;;;;2.78;1.50;;;;;;;17.02;53.44;96929.16;10329114;28;20036;-33
2023/04/17 20:36:26;;;;;;;1.57;1.40;;;;;;;17.02;56.42;96934.22;10328641;28;20304;-32
2023/04/17 20:41:26;;;;;;;1.40;0.98;;;;;;;17.03;53.74;96930.84;10328393;28;20296;-32
2023/04/17 20:46:28;;;;;;;2.50;1.00;;;;;;;17.02;52.65;96936.75;10328372;28;20452;-33
2023/04/17 20:51:28;;;;;;;1.98;0.68;;;;;;;17.01;52.68;96928.34;10329363;28;20038;-32
2023/04/17 20:56:28;;;;;;;2.80;1.20;;;;;;;16.98;53.08;96919.88;10328315;28;20448;-32
2023/04/17 21:01:29;;;;;;;4.53;1.20;;;;;;;16.99;53.38;96924.09;10327880;28;20040;-31
2023/04/17 21:06:29;;;;;;;2.77;1.40;;;;;;;17.03;59.23;96930.84;10328169;28;20054;-32
2023/04/17 21:11:29;;;;;;;3.38;1.73;;;;;;;17.01;60.55;96918.22;10342935;28;20045;-32
2023/04/17 21:16:30;;;;;;;5.60;1.90;;;;;;;17.03;59.74;96911.47;10328784;28;20030;-33
2023/04/17 21:21:30;;;;;;;4.03;1.63;;;;;;;17.02;58.75;96924.09;10327891;28;20092;-32
2023/04/17 21:26:30;;;;;;;5.03;1.30;;;;;;;16.97;58.39;96915.63;10327219;28;20046;-32
2023/04/17 21:31:31;;;;;;;3.30;1.03;;;;;;;16.96;54.24;96913.94;10327479;28;20042;-32
2023/04/17 21:36:31;;;;;;;3.13;1.00;;;;;;;16.95;53.54;96910.56;10327404;28;20026;-32
2023/04/17 21:41:31;;;;;;;3.95;1.38;;;;;;;16.94;54.32;96897.91;10327440;28;20301;-32
2023/04/17 21:46:32;;;;;;;2.50;1.00;;;;;;;16.95;53.01;96907.19;10327278;28;20512;-32
2023/04/17 21:51:32;;;;;;;2.50;1.30;;;;;;;16.97;53.34;96905.50;10332506;28;20030;-33
2023/04/17 21:56:33;;;;;;;1.87;0.80;;;;;;;16.89;52.80;96886.91;10343462;28;20038;-33
2023/04/17 22:01:33;;;;;;;2.80;1.40;;;;;;;16.94;52.78;96891.16;10333508;28;20177;-32
2023/04/17 22:06:35;;;;;;;6.00;1.50;;;;;;;16.96;59.26;96888.63;10334635;28;20635;-32
2023/04/17 22:11:36;;;;;;;3.08;1.58;;;;;;;16.97;59.79;96886.13;10334458;28;20469;-32
2023/04/17 22:16:37;;;;;;;3.25;1.20;;;;;;;17.00;59.29;96888.66;10341980;28;20038;-32
2023/04/17 22:21:38;;;;;;;3.67;1.17;;;;;;;16.99;58.82;96883.63;10334437;28;20460;-33
2023/04/17 22:26:38;;;;;;;5.25;1.17;;;;;;;16.93;58.47;96874.31;10333984;28;20097;-32
2023/04/17 22:31:39;;;;;;;1.40;1.08;;;;;;;16.92;54.69;96871.75;10333570;28;20046;-33
2023/04/17 22:36:39;;;;;;;2.03;1.30;;;;;;;16.92;55.12;96877.63;10334004;28;20038;-32
2023/04/17 22:41:40;;;;;;;0.97;0.90;;;;;;;16.94;55.63;96875.13;10341644;28;20443;-32
2023/04/17 22:46:40;;;;;;;1.63;0.93;;;;;;;16.93;54.13;96865.84;10333042;28;20041;-32
2023/04/17 22:51:41;;;;;;;1.33;0.87;;;;;;;16.93;53.50;96869.25;10333337;28;20126;-32
2023/04/17 22:56:41;;;;;;;3.65;1.10;;;;;;;16.92;55.75;96867.53;10348797;28;20120;-32
2023/04/17 23:01:42;;;;;;;3.23;0.93;;;;;;;16.92;53.36;96866.69;10336910;28;20044;-32
2023/04/17 23:06:42;;;;;;;6.17;1.70;;;;;;;16.93;59.08;96861.66;10341610;28;20030;-33
2023/04/17 23:11:42;;;;;;;4.47;1.10;;;;;;;16.95;59.59;96860.00;10348135;28;20125;-31
2023/04/17 23:16:43;;;;;;;4.73;1.53;;;;;;;16.96;59.47;96855.75;10332370;28;20073;-34
2023/04/17 23:21:43;;;;;;;4.13;1.40;;;;;;;16.96;58.21;96858.28;10348747;28;20100;-32